Time;durP1;ratioP1;P1;durP2;ratioP2;P2;SDS_P1;SDS_P2;PMS_P1;PMS_P2;Temp;Humidity;BMP_temperature;BMP_pressure;BME280_temperature;BME280_humidity;BME280_pressure;Samples;Min_cycle;Max_cycle;Signal;HPM_P1;HPM_P2
2021/12/29 00:00:27;;;;;;;7.38;1.65;;;;;;;4.03;100.00;91972.44;2105312;28;20074;-85
2021/12/29 00:01:28;;;;;;;7.43;1.30;;;;;;;4.04;100.00;91985.28;2106420;28;20024;-88
2021/12/29 00:02:29;;;;;;;16.15;2.10;;;;;;;3.99;100.00;91991.00;2097266;28;20055;-88
2021/12/29 00:03:30;;;;;;;7.95;1.52;;;;;;;3.95;100.00;91997.47;2097360;28;20088;-85
2021/12/29 00:04:31;;;;;;;6.82;1.27;;;;;;;4.12;100.00;91995.72;2105883;28;20027;-86
2021/12/29 00:05:33;;;;;;;7.88;1.73;;;;;;;4.13;100.00;91981.38;2097920;28;20446;-86
2021/12/29 00:06:34;;;;;;;10.40;1.95;;;;;;;4.05;100.00;92001.88;2097734;28;20380;-87
2021/12/29 00:07:36;;;;;;;13.73;1.65;;;;;;;4.04;100.00;91987.16;2097341;28;20568;-87
2021/12/29 00:08:37;;;;;;;14.82;1.60;;;;;;;4.03;100.00;91986.41;2093911;28;20082;-87
2021/12/29 00:09:40;;;;;;;10.60;1.90;;;;;;;4.14;100.00;91990.78;2096979;28;20428;-85
2021/12/29 00:10:54;;;;;;;9.00;1.92;;;;;;;4.22;100.00;91984.97;2100659;27;20373;-85
2021/12/29 00:11:55;;;;;;;8.90;1.75;;;;;;;4.14;100.00;91985.50;2102289;28;20107;-88
2021/12/29 00:12:56;;;;;;;8.00;1.50;;;;;;;4.02;100.00;91992.84;2095508;28;20063;-87
2021/12/29 00:13:58;;;;;;;9.02;1.58;;;;;;;3.98;100.00;91994.03;2090259;28;20025;-86
2021/12/29 00:14:59;;;;;;;9.35;1.60;;;;;;;4.01;100.00;91994.00;2093638;28;20028;-86
2021/12/29 00:16:02;;;;;;;11.63;2.00;;;;;;;4.15;100.00;91993.03;2094919;28;20021;-88
2021/12/29 00:17:06;;;;;;;7.15;1.48;;;;;;;3.99;100.00;91998.91;2094136;28;20020;-86
2021/12/29 00:18:07;;;;;;;10.20;1.80;;;;;;;4.05;100.00;92001.88;2094967;28;20525;-86
2021/12/29 00:19:08;;;;;;;8.82;1.50;;;;;;;4.10;100.00;91998.78;2102358;28;20079;-85
2021/12/29 00:20:10;;;;;;;7.40;1.40;;;;;;;4.03;100.00;91999.63;2111232;28;20043;-87
2021/12/29 00:21:11;;;;;;;13.45;1.98;;;;;;;3.94;100.00;92003.91;2101890;28;20465;-85
2021/12/29 00:22:12;;;;;;;14.02;1.67;;;;;;;4.00;100.00;91997.78;2103314;28;20043;-86
2021/12/29 00:23:13;;;;;;;5.63;1.38;;;;;;;4.04;100.00;92005.69;2109872;28;20687;-86
2021/12/29 00:24:14;;;;;;;8.68;1.25;;;;;;;4.03;100.00;91996.97;2103464;28;20085;-86
2021/12/29 00:25:16;;;;;;;6.63;1.50;;;;;;;4.17;100.00;92000.53;2092646;28;20112;-86
2021/12/29 00:26:17;;;;;;;5.57;1.30;;;;;;;4.22;100.00;91997.47;2098277;28;20024;-86
2021/12/29 00:27:18;;;;;;;6.72;1.40;;;;;;;4.15;100.00;92008.16;2089868;28;20024;-86
2021/12/29 00:28:19;;;;;;;5.03;1.10;;;;;;;4.01;100.00;91999.28;2098260;28;20093;-86
2021/12/29 00:29:20;;;;;;;8.85;1.30;;;;;;;4.10;100.00;91998.78;2098449;28;20081;-87
2021/12/29 00:30:22;;;;;;;9.20;1.65;;;;;;;4.13;100.00;92018.38;2098188;28;20028;-86
2021/12/29 00:31:33;;;;;;;7.32;1.38;;;;;;;4.17;100.00;92006.59;2098339;28;20023;-87
2021/12/29 00:32:35;;;;;;;8.77;1.67;;;;;;;4.17;100.00;92011.91;2091334;28;20493;-87
2021/12/29 00:33:35;;;;;;;7.35;1.25;;;;;;;4.06;100.00;92008.66;2090155;28;20730;-85
2021/12/29 00:34:36;;;;;;;8.23;1.45;;;;;;;4.09;100.00;92005.22;2098403;28;20025;-85
2021/12/29 00:35:38;;;;;;;4.93;1.30;;;;;;;4.42;100.00;92014.13;2106372;28;20016;-86
2021/12/29 00:36:39;;;;;;;10.73;2.17;;;;;;;4.32;100.00;92009.00;2090662;28;20017;-86
2021/12/29 00:37:42;;;;;;;5.28;1.40;;;;;;;4.34;100.00;92010.09;2097454;28;20024;-87
2021/12/29 00:38:45;;;;;;;9.10;1.65;;;;;;;4.34;100.00;92012.00;2106707;28;20043;-86
2021/12/29 00:39:46;;;;;;;7.20;1.27;;;;;;;4.33;100.00;92018.44;2107831;28;20114;-86
2021/12/29 00:40:47;;;;;;;5.50;0.93;;;;;;;4.32;100.00;92022.97;2106473;28;20610;-86
2021/12/29 00:41:47;;;;;;;7.75;1.70;;;;;;;4.27;100.00;92021.56;2104847;28;20126;-86
2021/12/29 00:42:48;;;;;;;8.18;1.00;;;;;;;4.38;100.00;92020.63;2110673;28;20028;-87
2021/12/29 00:43:49;;;;;;;6.85;1.40;;;;;;;4.41;100.00;92033.06;2102144;28;20016;-86
2021/12/29 00:44:51;;;;;;;5.20;1.10;;;;;;;4.44;100.00;92025.06;2108481;28;20059;-86
2021/12/29 00:45:52;;;;;;;9.63;1.35;;;;;;;4.26;100.00;92028.00;2104337;28;20396;-87
2021/12/29 00:46:54;;;;;;;5.13;1.25;;;;;;;4.26;100.00;92025.34;2100396;28;20032;-86
2021/12/29 00:47:55;;;;;;;7.32;1.15;;;;;;;4.27;100.00;92020.81;2104213;28;20016;-86
2021/12/29 00:48:56;;;;;;;5.57;1.15;;;;;;;4.20;100.00;92024.28;2114628;28;20066;-86
2021/12/29 00:49:59;;;;;;;4.53;1.05;;;;;;;4.32;100.00;92030.91;2102400;28;20024;-87
2021/12/29 00:51:00;;;;;;;4.47;1.30;;;;;;;4.30;100.00;92030.56;2088079;28;20066;-86
2021/12/29 00:52:05;;;;;;;4.82;1.33;;;;;;;4.27;100.00;92031.38;2098010;28;20610;-86
2021/12/29 00:53:07;;;;;;;10.05;1.08;;;;;;;4.15;100.00;92037.97;2098564;28;20050;-88
2021/12/29 00:54:08;;;;;;;6.53;1.23;;;;;;;4.18;100.00;92045.13;2098283;28;20115;-86
2021/12/29 00:55:10;;;;;;;7.63;0.88;;;;;;;4.32;100.00;92054.72;2098238;28;20029;-87
2021/12/29 00:56:11;;;;;;;7.93;1.45;;;;;;;4.21;100.00;92054.13;2090539;28;20024;-86
2021/12/29 00:57:12;;;;;;;6.03;1.30;;;;;;;4.24;100.00;92048.78;2106587;28;20023;-85
2021/12/29 00:58:13;;;;;;;5.03;1.13;;;;;;;4.21;100.00;92051.47;2114728;28;20015;-88
2021/12/29 00:59:14;;;;;;;6.38;1.08;;;;;;;4.13;100.00;92048.22;2106459;28;20027;-87
2021/12/29 01:00:19;;;;;;;7.65;1.52;;;;;;;4.15;100.00;92055.75;2106505;28;20016;-87
2021/12/29 01:01:20;;;;;;;6.13;1.27;;;;;;;4.04;100.00;92058.56;2099012;28;20020;-86
2021/12/29 01:02:21;;;;;;;6.85;1.17;;;;;;;3.96;100.00;92060.53;2097967;28;20048;-87
2021/12/29 01:03:22;;;;;;;3.95;1.17;;;;;;;4.04;100.00;92048.72;2114795;28;20051;-85
2021/12/29 01:04:24;;;;;;;4.18;0.98;;;;;;;3.98;100.00;92058.25;2103924;28;20058;-88
2021/12/29 01:05:25;;;;;;;8.50;1.30;;;;;;;4.02;100.00;92074.81;2089838;28;20094;-89
2021/12/29 01:06:26;;;;;;;4.78;1.02;;;;;;;4.08;100.00;92058.47;2089811;28;20025;-86
2021/12/29 01:07:27;;;;;;;3.78;0.98;;;;;;;3.97;100.00;92069.97;2089687;28;20025;-87
2021/12/29 01:08:28;;;;;;;4.45;1.02;;;;;;;3.92;100.00;92070.41;2089708;28;20028;-89
2021/12/29 01:09:32;;;;;;;4.95;1.08;;;;;;;3.98;100.00;92068.81;2089708;28;20021;-85
2021/12/29 01:10:39;;;;;;;5.10;1.23;;;;;;;4.08;100.00;92061.88;2104912;28;20040;-85
2021/12/29 01:11:41;;;;;;;4.75;1.30;;;;;;;4.19;100.00;92074.94;2099655;28;20192;-87
2021/12/29 01:12:57;;;;;;;7.55;0.90;;;;;;;4.16;100.00;92070.47;2097827;28;20411;-86
2021/12/29 01:13:58;;;;;;;5.72;1.00;;;;;;;4.26;100.00;92072.22;2110547;27;20023;-85
2021/12/29 01:15:02;;;;;;;3.03;0.95;;;;;;;4.15;100.00;92076.91;2106316;28;20111;-87
2021/12/29 01:17:11;;;;;;;2.53;0.80;;;;;;;4.05;100.00;92089.13;2107588;27;20369;-85
2021/12/29 01:18:12;;;;;;;2.30;0.68;;;;;;;4.00;100.00;92084.28;2106536;28;20050;-86
2021/12/29 01:19:25;;;;;;;4.60;0.90;;;;;;;4.02;100.00;92095.22;2101549;28;20036;-86
2021/12/29 01:20:31;;;;;;;4.15;0.98;;;;;;;3.99;100.00;92101.28;2107931;28;20085;-87
2021/12/29 01:21:38;;;;;;;6.55;0.80;;;;;;;4.29;100.00;92095.94;2106309;28;20404;-85
2021/12/29 01:22:39;;;;;;;8.93;1.23;;;;;;;4.15;100.00;92108.63;2098783;28;20020;-88
2021/12/29 01:23:40;;;;;;;6.10;0.80;;;;;;;4.21;100.00;92107.78;2097106;28;20042;-86
2021/12/29 01:24:43;;;;;;;3.60;0.88;;;;;;;4.18;100.00;92113.88;2089582;28;20031;-85
2021/12/29 01:25:44;;;;;;;1.90;0.90;;;;;;;4.16;100.00;92104.84;2089856;28;20048;-85
2021/12/29 01:26:45;;;;;;;2.10;0.75;;;;;;;4.27;100.00;92105.44;2105890;28;20024;-85
2021/12/29 01:27:47;;;;;;;3.33;0.85;;;;;;;4.25;100.00;92102.44;2098816;28;20066;-87
2021/12/29 01:28:48;;;;;;;2.83;0.63;;;;;;;4.05;100.00;92115.56;2106355;28;20019;-86
2021/12/29 01:29:49;;;;;;;3.92;0.95;;;;;;;4.00;100.00;92116.03;2097951;28;20032;-86
2021/12/29 01:30:51;;;;;;;3.03;0.85;;;;;;;3.95;100.00;92116.44;2096308;28;20025;-86
2021/12/29 01:31:55;;;;;;;6.80;0.95;;;;;;;3.85;100.00;92112.78;2089717;28;20029;-86
2021/12/29 01:32:57;;;;;;;4.45;0.80;;;;;;;4.01;100.00;92110.31;2090527;28;20063;-87
2021/12/29 01:34:04;;;;;;;3.85;0.95;;;;;;;4.03;100.00;92112.56;2097739;28;20025;-86
2021/12/29 01:35:06;;;;;;;2.65;0.68;;;;;;;4.13;100.00;92119.63;2094923;28;20024;-87
2021/12/29 01:36:08;;;;;;;5.38;0.80;;;;;;;4.03;100.00;92113.31;2102247;28;20028;-85
2021/12/29 01:37:10;;;;;;;4.28;0.80;;;;;;;4.11;100.00;92132.47;2101660;28;20017;-86
2021/12/29 01:38:11;;;;;;;5.45;0.77;;;;;;;4.17;100.00;92122.19;2102415;28;20028;-87
2021/12/29 01:39:16;;;;;;;2.03;0.73;;;;;;;4.11;100.00;92118.50;2114023;28;20059;-88
2021/12/29 01:40:19;;;;;;;3.50;0.88;;;;;;;4.23;100.00;92123.25;2098229;28;20032;-86
2021/12/29 01:41:24;;;;;;;3.17;0.82;;;;;;;4.23;100.00;92115.31;2098089;28;20027;-85
2021/12/29 01:42:24;;;;;;;3.05;0.85;;;;;;;4.13;100.00;92111.69;2090509;28;20079;-88
2021/12/29 01:43:26;;;;;;;4.00;0.80;;;;;;;4.06;100.00;92111.03;2097636;28;20550;-85
2021/12/29 01:44:28;;;;;;;5.18;1.10;;;;;;;4.10;100.00;92117.03;2097752;28;20024;-87
2021/12/29 01:45:29;;;;;;;2.00;0.75;;;;;;;4.18;100.00;92107.84;2097843;28;20044;-88
2021/12/29 01:46:30;;;;;;;5.57;0.70;;;;;;;4.03;100.00;92109.91;2097720;28;20513;-87
2021/12/29 01:47:32;;;;;;;5.65;1.35;;;;;;;4.07;100.00;92107.22;2114531;28;20038;-88
2021/12/29 01:48:33;;;;;;;2.38;0.50;;;;;;;4.12;100.00;92106.78;2106048;28;20020;-86
2021/12/29 01:49:38;;;;;;;4.45;0.57;;;;;;;4.09;100.00;92107.59;2101113;28;20103;-87
2021/12/29 01:50:42;;;;;;;2.80;0.80;;;;;;;3.99;100.00;92102.03;2107082;28;20042;-87
2021/12/29 01:51:51;;;;;;;4.13;0.93;;;;;;;4.15;100.00;92108.63;2104999;28;20030;-87
2021/12/29 01:52:57;;;;;;;3.88;0.98;;;;;;;4.29;100.00;92114.47;2100951;28;20035;-86
2021/12/29 01:55:15;;;;;;;7.05;0.88;;;;;;;4.10;100.00;92117.75;2093596;28;20530;-87
2021/12/29 01:56:17;;;;;;;5.47;0.80;;;;;;;4.02;100.00;92119.75;2089414;28;20535;-86
2021/12/29 01:57:22;;;;;;;5.25;1.00;;;;;;;3.97;100.00;92116.81;2091706;28;20021;-84
2021/12/29 01:58:25;;;;;;;3.72;0.75;;;;;;;4.04;100.00;92117.47;2098968;28;20073;-85
2021/12/29 01:59:28;;;;;;;1.70;0.60;;;;;;;4.04;100.00;92119.38;2098153;28;20016;-87
2021/12/29 02:00:36;;;;;;;2.38;0.82;;;;;;;4.10;100.00;92119.66;2106532;28;20031;-88
2021/12/29 02:01:37;;;;;;;3.63;0.60;;;;;;;4.04;100.00;92125.41;2106777;28;20024;-89
2021/12/29 02:02:39;;;;;;;2.50;0.75;;;;;;;4.03;100.00;92128.44;2114418;28;20020;-85
2021/12/29 02:03:40;;;;;;;8.60;1.15;;;;;;;3.99;100.00;92133.00;2114608;27;20028;-86
2021/12/29 02:04:43;;;;;;;3.00;0.85;;;;;;;4.19;100.00;92130.50;2114009;28;20019;-87
2021/12/29 02:05:44;;;;;;;4.40;0.70;;;;;;;4.31;100.00;92132.59;2106252;28;20047;-87
2021/12/29 02:06:46;;;;;;;5.65;0.80;;;;;;;4.18;100.00;92136.94;2097473;28;20077;-86
2021/12/29 02:07:47;;;;;;;5.38;0.93;;;;;;;4.17;100.00;92138.06;2089479;28;20410;-86
2021/12/29 02:08:49;;;;;;;2.30;0.80;;;;;;;4.13;100.00;92142.69;2089257;28;20032;-87
2021/12/29 02:09:50;;;;;;;3.17;1.02;;;;;;;4.12;100.00;92135.88;2090834;28;20481;-86
2021/12/29 02:10:52;;;;;;;2.72;0.60;;;;;;;4.10;100.00;92148.75;2105960;28;20102;-86
2021/12/29 02:11:53;;;;;;;4.30;1.10;;;;;;;4.12;100.00;92149.09;2106223;28;20026;-86
2021/12/29 02:12:54;;;;;;;3.67;0.90;;;;;;;4.22;100.00;92156.16;2106165;28;20027;-87
2021/12/29 02:14:02;;;;;;;5.47;1.10;;;;;;;4.29;100.00;92162.06;2105813;28;20384;-86
2021/12/29 02:15:06;;;;;;;3.63;1.00;;;;;;;4.35;100.00;92157.09;2107760;28;20035;-86
2021/12/29 02:16:10;;;;;;;4.30;0.75;;;;;;;4.26;100.00;92162.88;2123215;27;20023;-86
2021/12/29 02:17:13;;;;;;;5.72;1.95;;;;;;;4.44;100.00;92143.38;2114378;28;20776;-86
2021/12/29 02:18:16;;;;;;;3.38;0.63;;;;;;;4.32;100.00;92149.22;2097344;28;20053;-86
2021/12/29 02:19:17;;;;;;;4.45;0.75;;;;;;;4.22;100.00;92156.91;2089275;28;20017;-87
2021/12/29 02:20:20;;;;;;;4.15;1.02;;;;;;;4.08;100.00;92143.09;2080900;28;20108;-87
2021/12/29 02:21:28;;;;;;;6.53;1.10;;;;;;;4.10;100.00;92154.78;2092583;28;20085;-85
2021/12/29 02:22:40;;;;;;;4.28;0.90;;;;;;;4.02;100.00;92162.06;2099536;28;20020;-87
2021/12/29 02:23:55;;;;;;;5.07;0.80;;;;;;;4.16;100.00;92161.13;2099029;28;20111;-85
2021/12/29 02:25:18;;;;;;;5.55;1.05;;;;;;;4.19;100.00;92159.59;2093326;28;20632;-86
2021/12/29 02:26:21;;;;;;;4.65;0.98;;;;;;;4.34;100.00;92168.81;2102805;28;20517;-87
2021/12/29 02:27:22;;;;;;;7.28;0.77;;;;;;;4.20;100.00;92166.38;2112221;28;20396;-86
2021/12/29 02:28:32;;;;;;;5.15;0.93;;;;;;;4.20;100.00;92163.72;2108000;28;20024;-85
2021/12/29 02:29:34;;;;;;;1.77;0.70;;;;;;;4.16;100.00;92163.00;2106326;28;20028;-88
2021/12/29 02:30:35;;;;;;;3.55;0.75;;;;;;;4.12;100.00;92167.59;2090125;28;20033;-87
2021/12/29 02:31:37;;;;;;;5.13;1.25;;;;;;;4.14;100.00;92162.69;2096927;28;20021;-85
2021/12/29 02:32:38;;;;;;;5.45;0.75;;;;;;;4.18;100.00;92169.41;2106020;28;20115;-86
2021/12/29 02:33:39;;;;;;;5.90;1.20;;;;;;;4.19;100.00;92168.25;2114138;28;20137;-87
2021/12/29 02:34:40;;;;;;;4.40;0.95;;;;;;;4.25;100.00;92164.00;2089240;28;20033;-87
2021/12/29 02:35:45;;;;;;;3.45;0.93;;;;;;;4.37;100.00;92167.28;2081698;28;20029;-87
2021/12/29 02:36:51;;;;;;;7.10;1.38;;;;;;;4.37;100.00;92172.56;2097394;28;20021;-86
2021/12/29 02:37:52;;;;;;;2.10;0.88;;;;;;;4.28;100.00;92173.81;2092105;28;20083;-87
2021/12/29 02:38:55;;;;;;;3.53;0.80;;;;;;;4.24;100.00;92170.47;2099618;28;20020;-86
2021/12/29 02:39:56;;;;;;;2.55;0.85;;;;;;;4.19;100.00;92168.25;2092200;28;20475;-87
2021/12/29 02:41:01;;;;;;;8.82;1.05;;;;;;;4.35;100.00;92178.25;2103311;28;20054;-86
2021/12/29 02:42:06;;;;;;;7.47;0.88;;;;;;;4.29;100.00;92172.66;2109421;28;20149;-88
2021/12/29 02:43:12;;;;;;;7.30;1.08;;;;;;;4.23;100.00;92171.63;2110343;28;20061;-86
2021/12/29 02:44:18;;;;;;;1.88;0.70;;;;;;;4.26;100.00;92175.38;2111404;28;20410;-86
2021/12/29 02:45:33;;;;;;;2.30;0.73;;;;;;;4.35;100.00;92172.22;2100952;28;20032;-85
2021/12/29 02:46:36;;;;;;;3.90;0.80;;;;;;;4.30;100.00;92165.47;2103292;28;20078;-87
2021/12/29 02:47:37;;;;;;;4.35;1.17;;;;;;;4.29;100.00;92169.25;2093261;28;20111;-87
2021/12/29 02:48:52;;;;;;;4.85;1.15;;;;;;;4.30;100.00;92170.75;2097099;28;20031;-88
2021/12/29 02:49:53;;;;;;;3.55;0.57;;;;;;;4.33;100.00;92174.50;2094993;28;20455;-86
2021/12/29 02:50:56;;;;;;;2.55;0.52;;;;;;;4.37;100.00;92180.50;2105699;28;20078;-87
2021/12/29 02:51:57;;;;;;;9.38;0.90;;;;;;;4.27;100.00;92172.31;2097814;28;20693;-86
2021/12/29 02:52:58;;;;;;;3.45;1.10;;;;;;;4.41;100.00;92165.34;2097416;28;20032;-85
2021/12/29 02:54:00;;;;;;;3.97;0.85;;;;;;;4.37;100.00;92172.56;2089288;28;20036;-87
2021/12/29 02:55:02;;;;;;;2.00;0.57;;;;;;;4.30;100.00;92168.09;2100486;28;20037;-87
2021/12/29 02:56:04;;;;;;;3.70;0.80;;;;;;;4.23;100.00;92168.22;2102634;28;20070;-86
2021/12/29 02:57:05;;;;;;;5.10;0.80;;;;;;;4.31;100.00;92174.16;2101046;28;20370;-87
2021/12/29 02:58:06;;;;;;;2.60;0.63;;;;;;;4.27;100.00;92176.84;2102180;28;20029;-87
2021/12/29 02:59:07;;;;;;;5.63;0.60;;;;;;;4.24;100.00;92181.03;2092795;28;20040;-85
2021/12/29 03:00:16;;;;;;;4.22;0.82;;;;;;;4.42;100.00;92175.50;2097314;28;20050;-86
2021/12/29 03:01:21;;;;;;;3.70;0.60;;;;;;;4.32;100.00;92181.69;2112114;28;20031;-86
2021/12/29 03:02:25;;;;;;;3.40;0.73;;;;;;;4.48;100.00;92184.50;2109610;28;20024;-88
2021/12/29 03:03:36;;;;;;;3.30;0.50;;;;;;;4.40;100.00;92187.66;2107455;28;20119;-86
2021/12/29 03:04:44;;;;;;;3.70;0.60;;;;;;;4.35;100.00;92188.84;2106807;28;20111;-87
2021/12/29 03:05:46;;;;;;;4.00;0.68;;;;;;;4.29;100.00;92196.47;2092703;28;20119;-87
2021/12/29 03:06:52;;;;;;;4.05;1.10;;;;;;;4.23;100.00;92195.41;2104300;28;20089;-85
2021/12/29 03:07:58;;;;;;;1.95;0.60;;;;;;;4.24;100.00;92198.81;2086106;28;20029;-86
2021/12/29 03:09:05;;;;;;;5.85;0.70;;;;;;;4.33;100.00;92206.25;2103442;28;20036;-86
2021/12/29 03:10:06;;;;;;;4.20;0.90;;;;;;;4.33;100.00;92199.06;2093975;28;20533;-85
2021/12/29 03:11:08;;;;;;;1.90;0.52;;;;;;;4.27;100.00;92208.59;2105736;28;20389;-86
2021/12/29 03:12:09;;;;;;;3.60;0.90;;;;;;;4.29;100.00;92216.88;2114016;28;20028;-85
2021/12/29 03:13:11;;;;;;;2.00;0.50;;;;;;;4.25;100.00;92214.28;2106510;28;20105;-86
2021/12/29 03:14:14;;;;;;;1.80;0.90;;;;;;;4.49;100.00;92214.34;2107241;28;20427;-85
2021/12/29 03:15:15;;;;;;;1.25;0.63;;;;;;;4.44;100.00;92214.81;2098921;28;20024;-86
2021/12/29 03:16:38;;;;;;;2.80;0.63;;;;;;;4.42;100.00;92215.19;2103923;28;20120;-85
2021/12/29 03:17:39;;;;;;;3.42;0.57;;;;;;;4.42;100.00;92217.09;2110237;28;20051;-86
2021/12/29 03:18:42;;;;;;;2.63;0.60;;;;;;;4.43;100.00;92219.31;2107195;27;20035;-86
2021/12/29 03:19:43;;;;;;;2.45;0.70;;;;;;;4.49;100.00;92217.75;2107420;28;20026;-85
2021/12/29 03:20:45;;;;;;;4.07;0.60;;;;;;;4.36;100.00;92210.75;2106522;28;20024;-85
2021/12/29 03:21:46;;;;;;;8.88;0.90;;;;;;;4.30;100.00;92213.06;2099770;28;20404;-85
2021/12/29 03:22:47;;;;;;;3.13;0.63;;;;;;;4.29;100.00;92214.22;2105955;28;20381;-85
2021/12/29 03:23:53;;;;;;;3.47;0.50;;;;;;;4.33;100.00;92214.94;2099971;28;20059;-85
2021/12/29 03:24:54;;;;;;;2.92;0.90;;;;;;;4.46;100.00;92223.84;2105711;28;20020;-86
2021/12/29 03:25:55;;;;;;;2.58;0.80;;;;;;;4.53;100.00;92218.44;2092650;28;20039;-86
2021/12/29 03:26:56;;;;;;;3.50;0.60;;;;;;;4.42;100.00;92219.75;2090386;28;20028;-87
2021/12/29 03:28:01;;;;;;;4.47;0.60;;;;;;;4.42;100.00;92220.47;2098838;28;20016;-86
2021/12/29 03:29:06;;;;;;;3.55;0.50;;;;;;;4.58;100.00;92227.09;2096932;28;20058;-86
2021/12/29 03:30:08;;;;;;;3.08;0.60;;;;;;;4.68;100.00;92226.19;2108336;27;20067;-85
2021/12/29 03:31:14;;;;;;;4.75;0.98;;;;;;;4.55;100.00;92237.31;2115700;27;20027;-86
2021/12/29 03:32:23;;;;;;;2.42;0.57;;;;;;;4.44;100.00;92236.72;2107712;28;20016;-86
2021/12/29 03:33:28;;;;;;;2.13;0.60;;;;;;;4.45;100.00;92226.88;2106114;28;20097;-85
2021/12/29 03:34:29;;;;;;;3.17;0.60;;;;;;;4.47;100.00;92235.16;2099121;28;20067;-86
2021/12/29 03:35:38;;;;;;;2.67;0.73;;;;;;;4.42;100.00;92235.59;2097266;28;20413;-85
2021/12/29 03:36:39;;;;;;;3.50;1.10;;;;;;;4.63;100.00;92232.69;2092673;28;20090;-85
2021/12/29 03:37:40;;;;;;;4.18;1.23;;;;;;;4.53;100.00;92234.34;2115394;28;20450;-86
2021/12/29 03:38:43;;;;;;;3.22;0.50;;;;;;;4.54;100.00;92230.53;2102722;28;20331;-85
2021/12/29 03:39:43;;;;;;;3.78;0.80;;;;;;;4.57;100.00;92231.66;2106516;28;20703;-84
2021/12/29 03:40:44;;;;;;;2.40;0.60;;;;;;;4.59;100.00;92237.28;2091088;28;20030;-86
2021/12/29 03:41:45;;;;;;;2.28;0.60;;;;;;;4.63;100.00;92226.66;2097686;28;20473;-85
2021/12/29 03:42:46;;;;;;;2.50;0.60;;;;;;;4.58;100.00;92227.84;2094259;28;20048;-87
2021/12/29 03:43:47;;;;;;;3.28;0.70;;;;;;;4.55;100.00;92232.03;2098485;28;20024;-85
2021/12/29 03:44:48;;;;;;;4.22;0.75;;;;;;;4.48;100.00;92237.44;2098449;28;20465;-86
2021/12/29 03:45:51;;;;;;;3.05;0.98;;;;;;;4.54;100.00;92235.81;2091831;28;20021;-86
2021/12/29 03:46:52;;;;;;;1.95;0.65;;;;;;;4.45;100.00;92235.56;2107355;28;20385;-88
2021/12/29 03:47:56;;;;;;;4.35;0.80;;;;;;;4.42;100.00;92240.91;2098611;28;20017;-86
2021/12/29 03:48:57;;;;;;;5.43;1.02;;;;;;;4.37;100.00;92249.28;2099344;28;20016;-87
2021/12/29 03:50:03;;;;;;;2.30;0.68;;;;;;;4.43;100.00;92240.50;2106816;28;20047;-85
2021/12/29 03:51:05;;;;;;;4.43;0.90;;;;;;;4.44;100.00;92242.00;2106879;28;20018;-87
2021/12/29 03:52:06;;;;;;;3.78;0.98;;;;;;;4.38;100.00;92248.13;2090509;28;20583;-86
2021/12/29 03:53:09;;;;;;;7.32;0.93;;;;;;;4.50;100.00;92244.97;2098665;28;20558;-85
2021/12/29 03:54:10;;;;;;;5.82;0.75;;;;;;;4.51;100.00;92236.59;2103082;28;20454;-86
2021/12/29 03:55:11;;;;;;;2.70;0.95;;;;;;;4.38;100.00;92240.94;2094469;28;20060;-86
2021/12/29 03:56:13;;;;;;;5.22;0.70;;;;;;;4.39;100.00;92249.63;2094611;28;20017;-86
2021/12/29 03:57:14;;;;;;;5.00;0.70;;;;;;;4.31;100.00;92250.88;2102542;28;20522;-87
2021/12/29 03:58:23;;;;;;;2.90;0.55;;;;;;;4.32;100.00;92239.16;2102035;28;20028;-87
2021/12/29 03:59:23;;;;;;;4.20;0.93;;;;;;;4.26;100.00;92244.88;2096390;28;20033;-86
2021/12/29 04:00:25;;;;;;;3.65;0.70;;;;;;;4.27;100.00;92245.63;2092250;28;20427;-85
2021/12/29 04:01:26;;;;;;;2.33;0.70;;;;;;;4.44;100.00;92243.91;2096821;28;20840;-87
2021/12/29 04:02:27;;;;;;;1.75;0.70;;;;;;;4.35;100.00;92243.66;2091823;28;20029;-86
2021/12/29 04:03:28;;;;;;;5.20;0.90;;;;;;;4.34;100.00;92237.59;2092823;28;20061;-86
2021/12/29 04:04:29;;;;;;;5.22;0.60;;;;;;;4.37;100.00;92241.34;2098477;28;20400;-85
2021/12/29 04:05:30;;;;;;;1.33;0.50;;;;;;;4.38;100.00;92238.28;2098423;28;20062;-85
2021/12/29 04:06:31;;;;;;;1.02;0.50;;;;;;;4.29;100.00;92238.78;2090358;28;20032;-88
2021/12/29 04:07:32;;;;;;;4.45;0.77;;;;;;;4.28;100.00;92239.94;2098486;28;20485;-86
2021/12/29 04:08:33;;;;;;;4.70;0.70;;;;;;;4.31;100.00;92243.69;2090209;28;20033;-86
2021/12/29 04:09:34;;;;;;;3.22;0.77;;;;;;;4.25;100.00;92246.00;2106866;28;20024;-87
2021/12/29 04:10:35;;;;;;;1.75;0.70;;;;;;;4.37;100.00;92241.34;2098101;28;20505;-86
2021/12/29 04:11:36;;;;;;;2.80;0.70;;;;;;;4.34;100.00;92244.78;2090369;28;20466;-87
2021/12/29 04:12:39;;;;;;;5.38;0.75;;;;;;;4.29;100.00;92238.78;2098261;28;20119;-85
2021/12/29 04:13:40;;;;;;;2.38;0.50;;;;;;;4.37;100.00;92238.69;2106958;27;20030;-86
2021/12/29 04:14:41;;;;;;;6.40;0.70;;;;;;;4.32;100.00;92239.91;2109595;28;20412;-87
2021/12/29 04:15:42;;;;;;;4.40;1.15;;;;;;;4.30;100.00;92244.81;2100722;28;20408;-86
2021/12/29 04:16:46;;;;;;;2.53;0.60;;;;;;;4.28;100.00;92244.47;2100724;28;20483;-87
2021/12/29 04:17:48;;;;;;;2.03;0.85;;;;;;;4.38;100.00;92238.28;2110341;28;20027;-86
2021/12/29 04:21:36;;;;;;;7.72;0.98;;;;;;;4.25;100.00;92247.91;2111648;28;20023;-86
2021/12/29 04:22:37;;;;;;;4.00;0.60;;;;;;;4.28;100.00;92247.88;2106293;28;20076;-86
2021/12/29 04:23:38;;;;;;;1.67;0.75;;;;;;;4.22;100.00;92254.00;2098133;28;20029;-85
2021/12/29 04:24:39;;;;;;;4.68;0.77;;;;;;;4.35;100.00;92252.34;2102109;28;20024;-86
2021/12/29 04:25:44;;;;;;;4.20;0.75;;;;;;;4.30;100.00;92260.69;2098153;28;20106;-87
2021/12/29 04:26:45;;;;;;;3.47;0.63;;;;;;;4.42;100.00;92256.78;2090326;28;20025;-85
2021/12/29 04:27:47;;;;;;;3.85;0.70;;;;;;;4.39;100.00;92252.28;2091373;28;20031;-86
2021/12/29 04:28:48;;;;;;;2.47;0.73;;;;;;;4.30;100.00;92255.41;2105493;28;20020;-86
2021/12/29 04:29:49;;;;;;;3.78;0.70;;;;;;;4.24;100.00;92260.38;2099185;28;20392;-86
2021/12/29 04:31:00;;;;;;;2.08;0.60;;;;;;;4.33;100.00;92257.25;2104941;28;20593;-85
2021/12/29 04:32:01;;;;;;;2.25;0.60;;;;;;;4.57;100.00;92258.09;2107561;28;20055;-86
2021/12/29 04:33:03;;;;;;;3.80;0.57;;;;;;;4.45;100.00;92263.94;2103315;28;20362;-86
2021/12/29 04:34:04;;;;;;;3.03;0.60;;;;;;;4.37;100.00;92259.88;2090015;28;20522;-85
2021/12/29 04:35:05;;;;;;;3.20;0.60;;;;;;;4.35;100.00;92254.97;2093948;28;20079;-86
2021/12/29 04:36:07;;;;;;;3.45;0.60;;;;;;;4.33;100.00;92265.19;2093649;28;20024;-88
2021/12/29 04:37:08;;;;;;;2.97;0.80;;;;;;;4.25;100.00;92261.13;2094715;28;20065;-86
2021/12/29 04:38:12;;;;;;;4.22;0.90;;;;;;;4.22;100.00;92264.59;2090014;28;20049;-86
2021/12/29 04:39:22;;;;;;;3.45;0.88;;;;;;;4.40;100.00;92278.34;2090872;28;20021;-87
2021/12/29 04:40:23;;;;;;;3.20;0.70;;;;;;;4.43;100.00;92272.25;2092669;28;20108;-88
2021/12/29 04:41:25;;;;;;;3.88;0.73;;;;;;;4.29;100.00;92278.47;2104148;28;20031;-87
2021/12/29 04:42:26;;;;;;;2.15;0.50;;;;;;;4.27;100.00;92277.38;2100211;28;20460;-87
2021/12/29 04:43:27;;;;;;;1.17;0.52;;;;;;;4.22;100.00;92262.69;2106397;28;20051;-87
2021/12/29 04:44:28;;;;;;;3.15;0.75;;;;;;;4.21;100.00;92265.72;2110889;27;20073;-88
2021/12/29 04:45:29;;;;;;;2.60;0.70;;;;;;;4.39;100.00;92266.28;2116426;27;20028;-87
2021/12/29 04:46:38;;;;;;;2.47;0.60;;;;;;;4.31;100.00;92267.50;2121900;27;20046;-86
2021/12/29 04:47:42;;;;;;;2.55;1.00;;;;;;;4.32;100.00;92281.47;2106471;28;20639;-86
2021/12/29 04:48:50;;;;;;;2.78;0.80;;;;;;;4.41;100.00;92276.44;2090912;28;20043;-87
2021/12/29 04:49:51;;;;;;;2.95;0.80;;;;;;;4.45;100.00;92283.19;2097591;28;20028;-86
2021/12/29 04:51:03;;;;;;;3.00;0.60;;;;;;;4.60;100.00;92291.69;2084879;28;20044;-89
2021/12/29 04:52:04;;;;;;;2.90;0.50;;;;;;;4.48;100.00;92290.34;2102886;28;20077;-86
2021/12/29 04:53:08;;;;;;;1.52;0.80;;;;;;;4.53;100.00;92281.22;2102835;28;20016;-86
2021/12/29 04:54:10;;;;;;;1.38;0.55;;;;;;;4.50;100.00;92288.03;2111102;27;20026;-88
2021/12/29 04:55:11;;;;;;;1.02;0.43;;;;;;;4.43;100.00;92292.66;2115066;27;20023;-86
2021/12/29 04:56:12;;;;;;;1.48;0.40;;;;;;;4.44;100.00;92286.25;2106699;28;20032;-85
2021/12/29 04:57:15;;;;;;;3.08;0.50;;;;;;;4.52;100.00;92282.34;2110023;28;20032;-87
2021/12/29 04:58:19;;;;;;;2.58;0.68;;;;;;;4.55;100.00;92287.59;2103339;28;20024;-87
2021/12/29 04:59:20;;;;;;;0.52;0.40;;;;;;;4.44;100.00;92280.97;2109233;28;20058;-84
2021/12/29 05:00:25;;;;;;;4.00;0.82;;;;;;;4.37;100.00;92287.06;2089664;28;20048;-87
2021/12/29 05:01:26;;;;;;;2.50;0.40;;;;;;;4.32;100.00;92281.47;2100756;28;20020;-88